sensor_id;sensor_type;location;lat;lon;timestamp;pressure;altitude;pressure_sealevel;temperature;humidity
43683;BME280;29285;52.128;21.060;2022-08-19T14:24:20;99923.47;;;34.59;41.85
43683;BME280;29285;52.128;21.060;2022-08-19T14:29:21;99920.61;;;34.56;41.61
43683;BME280;29285;52.128;21.060;2022-08-19T14:34:22;99919.91;;;34.48;41.28
43683;BME280;29285;52.128;21.060;2022-08-19T14:39:23;99924.34;;;34.44;41.13
43683;BME280;29285;52.128;21.060;2022-08-19T14:44:25;99923.89;;;34.41;40.92
43683;BME280;29285;52.128;21.060;2022-08-19T14:49:26;99926.46;;;34.38;40.77
43683;BME280;29285;52.128;21.060;2022-08-19T14:54:27;99923.88;;;34.30;40.57
43683;BME280;29285;52.128;21.060;2022-08-19T14:59:28;99930.88;;;34.35;40.51
43683;BME280;29285;52.128;21.060;2022-08-19T15:04:29;99932.49;;;34.40;40.33
43683;BME280;29285;52.128;21.060;2022-08-19T15:09:31;99928.84;;;34.37;40.16
43683;BME280;29285;52.128;21.060;2022-08-19T15:14:35;99925.27;;;34.26;40.03
43683;BME280;29285;52.128;21.060;2022-08-19T15:19:38;99928.95;;;34.29;40.10
43683;BME280;29285;52.128;21.060;2022-08-19T15:24:39;99925.05;;;34.42;40.14
43683;BME280;29285;52.128;21.060;2022-08-19T15:29:40;99920.73;;;34.48;40.02
43683;BME280;29285;52.128;21.060;2022-08-19T15:34:41;99911.63;;;34.60;40.03
43683;BME280;29285;52.128;21.060;2022-08-19T15:39:43;99912.61;;;34.63;39.85
43683;BME280;29285;52.128;21.060;2022-08-19T15:44:43;99907.02;;;34.65;39.74
43683;BME280;29285;52.128;21.060;2022-08-19T15:49:46;99900.89;;;34.67;39.58
43683;BME280;29285;52.128;21.060;2022-08-19T15:54:47;99901.89;;;34.77;39.46
43683;BME280;29285;52.128;21.060;2022-08-19T15:59:48;99910.72;;;34.75;39.31
43683;BME280;29285;52.128;21.060;2022-08-19T16:05:10;99909.97;;;34.59;39.11
43683;BME280;29285;52.128;21.060;2022-08-19T16:10:31;99910.45;;;34.37;39.07
43683;BME280;29285;52.128;21.060;2022-08-19T16:15:33;99911.64;;;33.97;39.03
43683;BME280;29285;52.128;21.060;2022-08-19T16:20:34;99910.68;;;33.53;39.05
43683;BME280;29285;52.128;21.060;2022-08-19T16:25:36;99906.59;;;33.23;39.27
43683;BME280;29285;52.128;21.060;2022-08-19T16:30:40;99904.85;;;32.92;39.43
43683;BME280;29285;52.128;21.060;2022-08-19T16:35:42;99895.98;;;32.64;39.65
43683;BME280;29285;52.128;21.060;2022-08-19T16:40:43;99901.20;;;32.38;39.92
43683;BME280;29285;52.128;21.060;2022-08-19T16:45:44;99884.90;;;32.07;40.13
43683;BME280;29285;52.128;21.060;2022-08-19T16:50:45;99890.38;;;31.82;40.54
43683;BME280;29285;52.128;21.060;2022-08-19T16:55:48;99889.98;;;31.54;40.72
43683;BME280;29285;52.128;21.060;2022-08-19T17:00:55;99890.91;;;31.34;40.89
43683;BME280;29285;52.128;21.060;2022-08-19T17:05:58;99897.28;;;31.16;41.08
43683;BME280;29285;52.128;21.060;2022-08-19T17:11:03;99904.36;;;31.00;41.33
43683;BME280;29285;52.128;21.060;2022-08-19T17:16:06;99898.32;;;30.86;41.53
43683;BME280;29285;52.128;21.060;2022-08-19T17:21:07;99902.69;;;30.70;41.81
43683;BME280;29285;52.128;21.060;2022-08-19T17:26:08;99896.27;;;30.55;42.03
43683;BME280;29285;52.128;21.060;2022-08-19T17:31:10;99900.45;;;30.36;42.23
43683;BME280;29285;52.128;21.060;2022-08-19T17:36:11;99898.24;;;30.23;42.48
43683;BME280;29285;52.128;21.060;2022-08-19T17:41:13;99905.89;;;30.06;42.58
43683;BME280;29285;52.128;21.060;2022-08-19T17:46:14;99915.20;;;29.89;42.76
43683;BME280;29285;52.128;21.060;2022-08-19T17:56:40;99940.22;;;29.63;43.18
43683;BME280;29285;52.128;21.060;2022-08-19T18:01:43;99946.28;;;29.47;43.33
43683;BME280;29285;52.128;21.060;2022-08-19T18:06:45;99960.80;;;29.36;43.58
43683;BME280;29285;52.128;21.060;2022-08-19T18:11:47;99971.11;;;29.27;43.81
43683;BME280;29285;52.128;21.060;2022-08-19T18:16:48;99981.42;;;29.17;44.08
43683;BME280;29285;52.128;21.060;2022-08-19T18:21:49;99983.53;;;29.10;44.32
43683;BME280;29285;52.128;21.060;2022-08-19T18:26:50;99985.45;;;28.99;44.51
43683;BME280;29285;52.128;21.060;2022-08-19T18:31:52;99992.58;;;28.90;44.69
43683;BME280;29285;52.128;21.060;2022-08-19T18:36:55;99988.78;;;28.83;44.91
43683;BME280;29285;52.128;21.060;2022-08-19T18:41:57;99984.38;;;28.78;45.15
43683;BME280;29285;52.128;21.060;2022-08-19T18:47:16;99986.34;;;28.72;45.39
43683;BME280;29285;52.128;21.060;2022-08-19T18:52:36;99978.20;;;28.59;45.51
43683;BME280;29285;52.128;21.060;2022-08-19T18:57:37;99965.72;;;28.50;45.70
43683;BME280;29285;52.128;21.060;2022-08-19T19:02:38;99967.11;;;28.40;45.91
43683;BME280;29285;52.128;21.060;2022-08-19T19:07:40;99958.69;;;28.35;46.20
43683;BME280;29285;52.128;21.060;2022-08-19T19:12:43;99949.40;;;28.25;46.40
43683;BME280;29285;52.128;21.060;2022-08-19T19:17:44;99946.98;;;28.22;46.73
43683;BME280;29285;52.128;21.060;2022-08-19T19:22:45;99959.67;;;28.20;47.01
43683;BME280;29285;52.128;21.060;2022-08-19T19:27:47;99968.13;;;28.15;47.28
43683;BME280;29285;52.128;21.060;2022-08-19T19:32:49;99971.06;;;28.08;47.41
43683;BME280;29285;52.128;21.060;2022-08-19T19:37:50;99981.50;;;28.01;47.59
43683;BME280;29285;52.128;21.060;2022-08-19T19:42:52;99961.84;;;27.78;47.83
43683;BME280;29285;52.128;21.060;2022-08-19T19:47:54;99961.84;;;27.78;47.83
43683;BME280;29285;52.128;21.060;2022-08-19T19:52:57;99983.91;;;27.80;47.92
43683;BME280;29285;52.128;21.060;2022-08-19T19:57:58;99986.52;;;27.76;48.17
43683;BME280;29285;52.128;21.060;2022-08-19T20:02:59;99988.30;;;27.71;48.35
43683;BME280;29285;52.128;21.060;2022-08-19T20:08:01;99970.87;;;27.57;48.56
43683;BME280;29285;52.128;21.060;2022-08-19T20:13:21;99992.52;;;27.54;49.11
43683;BME280;29285;52.128;21.060;2022-08-19T20:18:23;99992.52;;;27.54;49.11
43683;BME280;29285;52.128;21.060;2022-08-19T20:23:24;100002.45;;;27.48;49.45
43683;BME280;29285;52.128;21.060;2022-08-19T20:28:26;100002.45;;;27.48;49.45
43683;BME280;29285;52.128;21.060;2022-08-19T20:33:27;100007.39;;;27.43;49.36
43683;BME280;29285;52.128;21.060;2022-08-19T20:38:30;100020.33;;;27.38;49.49
43683;BME280;29285;52.128;21.060;2022-08-19T20:43:32;100026.86;;;27.29;49.58
43683;BME280;29285;52.128;21.060;2022-08-19T20:48:34;100034.89;;;27.19;49.64
43683;BME280;29285;52.128;21.060;2022-08-19T20:53:38;100037.27;;;27.13;49.79
43683;BME280;29285;52.128;21.060;2022-08-19T20:58:40;100033.61;;;27.14;49.98
43683;BME280;29285;52.128;21.060;2022-08-19T21:03:41;100021.94;;;27.15;50.21
43683;BME280;29285;52.128;21.060;2022-08-19T21:08:42;100022.28;;;27.16;50.35
43683;BME280;29285;52.128;21.060;2022-08-19T21:13:43;100018.50;;;27.08;50.27
43683;BME280;29285;52.128;21.060;2022-08-19T21:18:44;100022.01;;;26.99;50.26
43683;BME280;29285;52.128;21.060;2022-08-19T21:23:45;100028.60;;;26.95;50.34
43683;BME280;29285;52.128;21.060;2022-08-19T21:28:46;100030.13;;;26.88;50.45
43683;BME280;29285;52.128;21.060;2022-08-19T21:33:48;100028.15;;;26.80;50.49
43683;BME280;29285;52.128;21.060;2022-08-19T21:38:49;100018.16;;;26.72;50.56
43683;BME280;29285;52.128;21.060;2022-08-19T21:43:50;100016.87;;;26.66;50.68
43683;BME280;29285;52.128;21.060;2022-08-19T21:48:51;100013.65;;;26.63;50.91
43683;BME280;29285;52.128;21.060;2022-08-19T21:53:52;100015.11;;;26.61;51.04
43683;BME280;29285;52.128;21.060;2022-08-19T21:58:53;100009.13;;;26.53;51.03
43683;BME280;29285;52.128;21.060;2022-08-19T22:03:56;99999.45;;;26.52;51.26
43683;BME280;29285;52.128;21.060;2022-08-19T22:08:56;99993.39;;;26.50;51.41
43683;BME280;29285;52.128;21.060;2022-08-19T22:13:58;99988.61;;;26.44;51.44
43683;BME280;29285;52.128;21.060;2022-08-19T22:18:59;99979.78;;;26.43;51.60
43683;BME280;29285;52.128;21.060;2022-08-19T22:24:00;99981.38;;;26.40;51.76
43683;BME280;29285;52.128;21.060;2022-08-19T22:29:01;99992.52;;;26.40;51.85
43683;BME280;29285;52.128;21.060;2022-08-19T22:34:03;99989.80;;;26.36;51.92
43683;BME280;29285;52.128;21.060;2022-08-19T22:39:05;100011.44;;;26.27;51.91
43683;BME280;29285;52.128;21.060;2022-08-19T22:44:06;100005.50;;;26.23;52.02
43683;BME280;29285;52.128;21.060;2022-08-19T22:49:09;100007.73;;;26.18;52.08
43683;BME280;29285;52.128;21.060;2022-08-19T22:54:10;100002.81;;;26.13;52.20
43683;BME280;29285;52.128;21.060;2022-08-19T22:59:12;100013.73;;;26.10;52.27
43683;BME280;29285;52.128;21.060;2022-08-19T23:04:12;100020.88;;;26.10;52.44
43683;BME280;29285;52.128;21.060;2022-08-19T23:09:13;100024.42;;;26.04;52.45
43683;BME280;29285;52.128;21.060;2022-08-19T23:14:15;100030.05;;;26.01;52.52
43683;BME280;29285;52.128;21.060;2022-08-19T23:19:19;100033.70;;;26.00;52.63
43683;BME280;29285;52.128;21.060;2022-08-19T23:24:20;100027.63;;;25.98;52.73
43683;BME280;29285;52.128;21.060;2022-08-19T23:29:21;100017.26;;;25.95;52.77
43683;BME280;29285;52.128;21.060;2022-08-19T23:34:41;100020.52;;;25.93;52.85
43683;BME280;29285;52.128;21.060;2022-08-19T23:39:42;100029.50;;;25.92;52.95
43683;BME280;29285;52.128;21.060;2022-08-19T23:44:43;100039.59;;;25.88;53.01
43683;BME280;29285;52.128;21.060;2022-08-19T23:49:44;100047.36;;;25.86;53.06
43683;BME280;29285;52.128;21.060;2022-08-19T23:54:47;100047.38;;;25.80;53.09
43683;BME280;29285;52.128;21.060;2022-08-19T23:59:48;100053.12;;;25.75;53.12
